This is the latest recevied weather packets stored in our database for station/object JA0BES-13. If no packets are shown the sender has not sent any weather packets the latest 10 day(s).
| Time | Temp. | Humidity | Pressure | Rain* | Wind** | Luminosity | Snow |
|---|---|---|---|---|---|---|---|
| 1777937093 | 10.56° C | 77% | 1018.9 hPa | 0 mm | - | - | - |
| 1777936493 | 10.56° C | 77% | 1018.7 hPa | 0 mm | - | - | - |
| 1777935893 | 10° C | 81% | 1018.5 hPa | 0 mm | - | - | - |
| 1777935292 | 10° C | 85% | 1018.3 hPa | 0 mm | - | - | - |
| 1777934692 | 9.44° C | 86% | 1018.4 hPa | 0 mm | - | - | - |
| 1777934092 | 8.89° C | 88% | 1018.4 hPa | 0 mm | - | - | - |
| 1777933491 | 8.89° C | 90% | 1018.4 hPa | 0 mm | - | - | - |
| 1777932891 | 8.33° C | 91% | 1018.2 hPa | 0 mm | - | - | - |
| 1777932290 | 8.33° C | 90% | 1018.2 hPa | 0 mm | - | - | - |
| 1777931690 | 8.33° C | 90% | 1018 hPa | 0 mm | - | - | - |
| 1777931090 | 8.33° C | 90% | 1017.9 hPa | 0 mm | - | - | - |
| 1777930490 | 7.78° C | 92% | 1017.9 hPa | 0 mm | - | - | - |
| 1777929889 | 7.22° C | 92% | 1017.6 hPa | 0 mm | - | - | - |
| 1777929289 | 7.22° C | 94% | 1017.3 hPa | 0 mm | - | - | - |
| 1777928688 | 6.67° C | 94% | 1017.1 hPa | 0 mm | - | - | - |
| 1777898070 | 11.67° C | 76% | 1010.1 hPa | 5.59 mm | - | - | - |
| 1777897470 | 11.67° C | 77% | 1009.7 hPa | 5.59 mm | - | - | - |
| 1777896870 | 11.67° C | 77% | 1009.1 hPa | 5.59 mm | - | - | - |
| 1777896269 | 12.22° C | 76% | 1009 hPa | 5.59 mm | - | - | - |
| 1777895669 | 12.22° C | 76% | 1008.7 hPa | 5.59 mm | - | - | - |
| 1777895068 | 12.22° C | 77% | 1008.4 hPa | 5.59 mm | - | - | - |
| 1777894468 | 12.22° C | 79% | 1008 hPa | 5.59 mm | - | - | - |
| 1777893868 | 12.78° C | 80% | 1007.7 hPa | 5.59 mm | - | - | - |
| 1777893268 | 12.78° C | 79% | 1007.4 hPa | 5.59 mm | - | - | - |
| 1777892667 | 13.33° C | 76% | 1007.1 hPa | 5.59 mm | - | - | - |
* Rain since midnight (hover to see other rain measurements)
** Current wind speed in m/s (hover to see current wind gust speed)